createdAt,value
2023-03-16T00:02:27.232Z,101515.44
2023-03-16T00:04:55.536Z,101524.09
2023-03-16T00:07:23.914Z,101524.97
2023-03-16T00:09:52.068Z,101533.72
2023-03-16T00:12:20.493Z,101530.22
2023-03-16T00:14:50.372Z,101526.72
2023-03-16T00:17:21.388Z,101533.72
2023-03-16T00:19:54.896Z,101529.38
2023-03-16T00:22:25.104Z,101534.56
2023-03-16T00:24:53.665Z,101536.34
2023-03-16T00:27:23.616Z,101537.19
2023-03-16T00:29:56.243Z,101532.81
2023-03-16T00:32:29.144Z,101535.47
2023-03-16T00:34:57.500Z,101542.44
2023-03-16T00:37:27.693Z,101546.78
2023-03-16T00:39:56.659Z,101544.16
2023-03-16T00:42:27.935Z,101554.69
2023-03-16T00:44:57.648Z,101552.91
2023-03-16T00:47:29.737Z,101560.75
2023-03-16T00:49:58.818Z,101556.34
2023-03-16T00:52:27.786Z,101557.22
2023-03-16T00:54:57.246Z,101561.59
2023-03-16T00:57:27.799Z,101555.53
2023-03-16T00:59:57.259Z,101558.13
2023-03-16T01:02:27.207Z,101556.38
2023-03-16T01:04:55.405Z,101555.56
2023-03-16T01:07:23.919Z,101558.16
2023-03-16T01:09:52.284Z,101565.94
2023-03-16T01:12:20.957Z,101563.34
2023-03-16T01:14:49.407Z,101563.38
2023-03-16T01:17:18.656Z,101561.63
2023-03-16T01:19:48.134Z,101567.69
2023-03-16T01:22:17.343Z,101568.56
2023-03-16T01:24:46.798Z,101576.38
2023-03-16T01:27:15.800Z,101566.84
2023-03-16T01:29:44.589Z,101569.44
2023-03-16T01:32:13.977Z,101567.72
2023-03-16T01:34:42.933Z,101569.44
2023-03-16T01:37:14.461Z,101569.47
2023-03-16T01:40:00.250Z,101561.63
2023-03-16T01:42:28.464Z,101560.75
2023-03-16T01:45:01.674Z,101563.34
2023-03-16T01:47:38.119Z,101565.09
2023-03-16T01:50:08.436Z,101557.25
2023-03-16T01:52:42.255Z,101555.53
2023-03-16T01:55:13.670Z,101556.41
2023-03-16T01:57:46.035Z,101552.94
2023-03-16T02:00:19.855Z,101559.00
2023-03-16T02:03:08.804Z,101557.28
2023-03-16T02:06:04.198Z,101565.09
2023-03-16T02:08:38.565Z,101552.91
2023-03-16T02:11:09.429Z,101552.06
2023-03-16T02:14:03.149Z,101552.94
2023-03-16T02:16:31.866Z,101551.19
2023-03-16T02:19:01.000Z,101558.13
2023-03-16T02:21:36.541Z,101550.28
2023-03-16T02:24:07.856Z,101549.44
2023-03-16T02:26:44.889Z,101550.31
2023-03-16T02:29:27.840Z,101544.22
2023-03-16T02:31:59.919Z,101543.34
2023-03-16T02:34:29.511Z,101552.03
2023-03-16T02:36:59.412Z,101554.69
2023-03-16T02:39:29.962Z,101550.31
2023-03-16T02:41:59.052Z,101553.78
2023-03-16T02:44:29.983Z,101548.56
2023-03-16T02:47:04.736Z,101559.03
2023-03-16T02:49:37.450Z,101556.41
2023-03-16T02:52:06.910Z,101556.41
2023-03-16T02:54:35.325Z,101545.13
2023-03-16T02:57:04.350Z,101566.81
2023-03-16T02:59:34.095Z,101562.47
2023-03-16T03:02:03.864Z,101567.69
2023-03-16T03:04:33.060Z,101569.47
2023-03-16T03:07:04.857Z,101560.75
2023-03-16T03:09:38.301Z,101563.31
2023-03-16T03:12:07.097Z,101561.59
2023-03-16T03:14:37.983Z,101555.53
2023-03-16T03:17:08.306Z,101566.81
2023-03-16T03:19:37.433Z,101565.06
2023-03-16T03:22:06.889Z,101561.63
2023-03-16T03:24:35.632Z,101566.84
2023-03-16T03:27:05.752Z,101565.09
2023-03-16T03:29:36.115Z,101570.31
2023-03-16T03:32:05.427Z,101567.72
2023-03-16T03:34:35.508Z,101575.53
2023-03-16T03:37:05.497Z,101573.81
2023-03-16T03:39:33.737Z,101572.91
2023-03-16T03:42:02.989Z,101581.63
2023-03-16T03:44:34.603Z,101578.16
2023-03-16T03:47:03.017Z,101580.75
2023-03-16T03:49:31.292Z,101580.75
2023-03-16T03:52:04.694Z,101576.41
2023-03-16T03:54:32.839Z,101581.59
2023-03-16T03:57:06.951Z,101580.75
2023-03-16T03:59:40.788Z,101592.03
2023-03-16T04:02:25.002Z,101591.16
2023-03-16T04:04:55.691Z,101587.66
2023-03-16T04:07:25.220Z,101588.53
2023-03-16T04:09:57.415Z,101587.66
2023-03-16T04:12:30.895Z,101598.06
2023-03-16T04:14:59.564Z,101586.81
2023-03-16T04:17:34.334Z,101586.81
2023-03-16T04:20:07.771Z,101593.78
2023-03-16T04:22:38.358Z,101591.16
2023-03-16T04:25:07.139Z,101588.53
2023-03-16T04:27:38.181Z,101592.03
2023-03-16T04:30:12.916Z,101601.56
2023-03-16T04:32:45.362Z,101592.03
2023-03-16T04:35:19.113Z,101588.53
2023-03-16T04:37:55.917Z,101597.22
2023-03-16T04:40:30.636Z,101596.38
2023-03-16T04:43:07.584Z,101592.88
2023-03-16T04:45:36.641Z,101598.97
2023-03-16T04:48:05.266Z,101593.75
2023-03-16T04:50:33.518Z,101604.19
2023-03-16T04:53:04.471Z,101600.72
2023-03-16T04:55:34.003Z,101603.28
2023-03-16T04:58:03.309Z,101599.81
2023-03-16T05:00:35.628Z,101604.16
2023-03-16T05:03:24.033Z,101598.94
2023-03-16T05:05:52.357Z,101597.22
2023-03-16T05:08:22.022Z,101605.88
2023-03-16T05:10:52.423Z,101608.47
2023-03-16T05:13:20.874Z,101609.34
2023-03-16T05:15:53.761Z,101605.88
2023-03-16T05:18:29.825Z,101615.41
2023-03-16T05:20:58.054Z,101613.69
2023-03-16T05:23:34.516Z,101613.69
2023-03-16T05:26:05.142Z,101618.91
2023-03-16T05:28:36.603Z,101618.94
2023-03-16T05:31:11.989Z,101625.84
2023-03-16T05:33:45.006Z,101627.59
2023-03-16T05:36:18.715Z,101623.22
2023-03-16T05:38:51.472Z,101627.63
2023-03-16T05:41:30.605Z,101627.63
2023-03-16T05:44:05.913Z,101634.56
2023-03-16T05:46:59.931Z,101642.38
2023-03-16T05:49:28.687Z,101642.38
2023-03-16T05:51:57.996Z,101633.72
2023-03-16T05:54:27.578Z,101648.50
2023-03-16T05:56:55.815Z,101650.22
2023-03-16T05:59:24.142Z,101643.25
2023-03-16T06:01:56.212Z,101656.31
2023-03-16T06:04:24.408Z,101655.44
2023-03-16T06:06:52.736Z,101658.88
2023-03-16T06:09:23.656Z,101664.13
2023-03-16T06:11:53.914Z,101662.38
2023-03-16T06:14:23.229Z,101661.50
2023-03-16T06:16:52.602Z,101659.75
2023-03-16T06:19:21.624Z,101667.53
2023-03-16T06:21:54.657Z,101669.25
2023-03-16T06:24:22.900Z,101668.34
2023-03-16T06:26:53.940Z,101672.66
2023-03-16T06:29:25.527Z,101672.66
2023-03-16T06:31:54.667Z,101678.72
2023-03-16T06:34:24.338Z,101679.56
2023-03-16T06:36:53.088Z,101680.47
2023-03-16T06:39:21.396Z,101681.31
2023-03-16T06:41:51.575Z,101686.47
2023-03-16T06:44:21.081Z,101681.13
2023-03-16T06:46:59.364Z,101677.59
2023-03-16T06:49:27.752Z,101680.97
2023-03-16T06:51:56.674Z,101682.63
2023-03-16T06:54:26.423Z,101690.44
2023-03-16T06:56:54.784Z,101683.34
2023-03-16T06:59:24.964Z,101679.94
2023-03-16T07:01:53.159Z,101692.09
2023-03-16T07:04:21.735Z,101696.59
2023-03-16T07:06:51.411Z,101700.00
2023-03-16T07:09:19.626Z,101700.84
2023-03-16T07:11:47.781Z,101701.53
2023-03-16T07:14:16.611Z,101704.22
2023-03-16T07:16:46.707Z,101705.63
2023-03-16T07:19:14.878Z,101703.59
2023-03-16T07:21:43.123Z,101706.16
2023-03-16T07:24:16.372Z,101697.19
2023-03-16T07:26:44.711Z,101709.97
2023-03-16T07:29:19.215Z,101704.19
2023-03-16T07:31:49.201Z,101715.19
2023-03-16T07:34:21.416Z,101715.28
2023-03-16T07:36:55.670Z,101721.19
2023-03-16T07:39:26.586Z,101719.44
2023-03-16T07:42:01.499Z,101718.38
2023-03-16T07:44:44.687Z,101722.31
2023-03-16T07:47:15.545Z,101712.50
2023-03-16T07:49:45.318Z,101714.91
2023-03-16T07:52:14.589Z,101718.41
2023-03-16T07:54:43.696Z,101711.38
2023-03-16T07:57:13.052Z,101719.28
2023-03-16T07:59:44.020Z,101721.81
2023-03-16T08:02:18.915Z,101732.88
2023-03-16T08:04:47.831Z,101721.28
2023-03-16T08:07:17.088Z,101728.97
2023-03-16T08:10:12.500Z,101729.22
2023-03-16T08:12:46.418Z,101736.59
2023-03-16T08:15:15.532Z,101739.06
2023-03-16T08:17:46.697Z,101727.69
2023-03-16T08:20:21.140Z,101727.69
2023-03-16T08:22:49.752Z,101736.44
2023-03-16T08:25:22.363Z,101732.66
2023-03-16T08:27:59.259Z,101725.78
2023-03-16T08:30:27.881Z,101735.41
2023-03-16T08:33:14.915Z,101735.09
2023-03-16T08:35:44.985Z,101742.44
2023-03-16T08:38:16.160Z,101727.72
2023-03-16T08:40:48.598Z,101734.53
2023-03-16T08:43:19.151Z,101731.19
2023-03-16T08:45:49.411Z,101738.50
2023-03-16T08:48:20.578Z,101737.69
2023-03-16T08:50:51.787Z,101737.09
2023-03-16T08:53:21.009Z,101741.25
2023-03-16T08:55:49.398Z,101742.00
2023-03-16T08:58:18.000Z,101742.63
2023-03-16T09:00:47.417Z,101752.09
2023-03-16T09:03:16.467Z,101754.81
2023-03-16T09:05:45.919Z,101761.84
2023-03-16T09:08:14.062Z,101756.56
2023-03-16T09:10:42.498Z,101751.13
2023-03-16T09:13:10.641Z,101752.06
2023-03-16T09:15:39.104Z,101742.47
2023-03-16T09:18:07.335Z,101740.13
2023-03-16T09:20:35.835Z,101746.81
2023-03-16T09:23:05.807Z,101751.09
2023-03-16T09:25:33.975Z,101753.81
2023-03-16T09:28:02.104Z,101753.47
2023-03-16T09:30:30.497Z,101762.53
2023-03-16T09:32:59.556Z,101759.31
2023-03-16T09:35:27.968Z,101765.22
2023-03-16T09:38:06.358Z,101762.69
2023-03-16T09:40:38.982Z,101762.69
2023-03-16T09:43:30.802Z,101769.44
2023-03-16T09:46:07.928Z,101765.88
2023-03-16T09:48:38.359Z,101766.44
2023-03-16T09:51:09.703Z,101762.78
2023-03-16T09:53:40.028Z,101765.53
2023-03-16T09:56:13.582Z,101775.41
2023-03-16T09:58:41.923Z,101770.25
2023-03-16T10:01:19.039Z,101758.75
2023-03-16T10:04:13.495Z,101760.41
2023-03-16T10:06:49.519Z,101756.78
2023-03-16T10:09:28.343Z,101769.66
2023-03-16T10:12:01.456Z,101764.38
2023-03-16T10:14:35.088Z,101742.28
2023-03-16T10:17:08.371Z,101744.47
2023-03-16T10:19:41.997Z,101754.31
2023-03-16T10:22:21.021Z,101745.06
2023-03-16T10:24:58.971Z,101746.00
2023-03-16T10:27:31.241Z,101743.97
2023-03-16T10:30:01.268Z,101747.88
2023-03-16T10:32:34.602Z,101740.50
2023-03-16T10:35:06.036Z,101738.16
2023-03-16T10:37:34.851Z,101734.22
2023-03-16T10:40:12.411Z,101731.03
2023-03-16T10:42:42.243Z,101740.28
2023-03-16T10:45:24.166Z,101721.78
2023-03-16T10:47:52.442Z,101719.00
2023-03-16T10:50:25.134Z,101716.00
2023-03-16T10:52:58.249Z,101726.13
2023-03-16T10:55:31.148Z,101725.69
2023-03-16T10:58:01.310Z,101713.25
2023-03-16T11:00:31.061Z,101704.97
2023-03-16T11:03:01.211Z,101706.91
2023-03-16T11:05:32.342Z,101711.59
2023-03-16T11:08:03.620Z,101710.47
2023-03-16T11:10:40.474Z,101709.22
2023-03-16T11:13:18.181Z,101708.59
2023-03-16T11:15:51.776Z,101704.63
2023-03-16T11:18:31.026Z,101688.06
2023-03-16T11:21:03.220Z,101688.03
2023-03-16T11:23:35.573Z,101689.78
2023-03-16T11:26:08.984Z,101688.25
2023-03-16T11:28:44.496Z,101690.50
2023-03-16T11:31:24.408Z,101689.78
2023-03-16T11:33:55.464Z,101688.97
2023-03-16T11:36:39.385Z,101682.59
2023-03-16T11:39:16.172Z,101695.09
2023-03-16T11:41:57.340Z,101669.91
2023-03-16T11:44:33.988Z,101672.50
2023-03-16T11:47:07.345Z,101673.34
2023-03-16T11:49:51.977Z,101666.53
2023-03-16T11:52:33.207Z,101645.59
2023-03-16T11:55:13.091Z,101651.66
2023-03-16T11:57:52.128Z,101658.41
2023-03-16T12:00:32.256Z,101676.34
2023-03-16T12:03:24.804Z,101663.91
2023-03-16T12:06:22.308Z,101650.78
2023-03-16T12:09:17.323Z,101660.88
2023-03-16T12:11:53.199Z,101642.09
2023-03-16T12:14:27.439Z,101655.09
2023-03-16T12:17:03.707Z,101630.19
2023-03-16T12:19:41.332Z,101638.25
2023-03-16T12:22:17.891Z,101627.94
2023-03-16T12:24:48.067Z,101635.28
2023-03-16T12:27:18.551Z,101627.47
2023-03-16T12:29:59.645Z,101635.34
2023-03-16T12:32:40.440Z,101621.78
2023-03-16T12:35:22.635Z,101608.09
2023-03-16T12:38:01.615Z,101598.63
2023-03-16T12:40:36.277Z,101627.13
2023-03-16T12:43:17.351Z,101633.88
2023-03-16T12:45:53.076Z,101619.88
2023-03-16T12:48:29.879Z,101615.16
2023-03-16T12:51:00.891Z,101612.50
2023-03-16T12:53:39.618Z,101614.56
2023-03-16T12:56:10.012Z,101607.47
2023-03-16T12:58:43.946Z,101611.78
2023-03-16T13:01:15.316Z,101600.41
2023-03-16T13:03:48.085Z,101599.72
2023-03-16T13:06:24.883Z,101613.44
2023-03-16T13:08:57.872Z,101612.22
2023-03-16T13:11:27.067Z,101622.84
2023-03-16T13:14:09.437Z,101613.91
2023-03-16T13:16:38.680Z,101610.38
2023-03-16T13:19:28.633Z,101606.28
2023-03-16T13:22:20.852Z,101602.25
2023-03-16T13:24:55.093Z,101598.47
2023-03-16T13:27:28.386Z,101594.47
2023-03-16T13:29:58.780Z,101587.34
2023-03-16T13:32:31.638Z,101602.91
2023-03-16T13:35:03.308Z,101590.56
2023-03-16T13:37:31.863Z,101592.78
2023-03-16T13:40:01.725Z,101603.06
2023-03-16T13:42:31.498Z,101594.56
2023-03-16T13:45:08.634Z,101574.22
2023-03-16T13:47:36.950Z,101575.91
2023-03-16T13:50:06.956Z,101586.63
2023-03-16T13:52:36.519Z,101580.31
2023-03-16T13:55:15.345Z,101572.41
2023-03-16T13:57:45.617Z,101573.97
2023-03-16T14:00:20.210Z,101569.47
2023-03-16T14:02:52.574Z,101561.19
2023-03-16T14:05:24.540Z,101561.25
2023-03-16T14:07:53.268Z,101558.06
2023-03-16T14:10:22.478Z,101544.53
2023-03-16T14:12:54.725Z,101539.88
2023-03-16T14:15:26.164Z,101527.03
2023-03-16T14:17:55.080Z,101536.97
2023-03-16T14:20:26.426Z,101526.50
2023-03-16T14:22:54.919Z,101578.78
2023-03-16T14:25:27.475Z,101579.25
2023-03-16T14:28:00.903Z,101582.06
2023-03-16T14:30:31.578Z,101584.09
2023-03-16T14:33:02.314Z,101587.94
2023-03-16T14:35:33.532Z,101586.06
2023-03-16T14:38:19.857Z,101574.84
2023-03-16T14:40:54.813Z,101581.25
2023-03-16T14:43:27.904Z,101584.66
2023-03-16T14:45:56.242Z,101591.13
2023-03-16T14:48:25.260Z,101590.31
2023-03-16T14:50:57.453Z,101593.53
2023-03-16T14:53:28.306Z,101594.22
2023-03-16T14:55:56.638Z,101578.28
2023-03-16T14:58:25.552Z,101562.47
2023-03-16T15:00:54.816Z,101568.97
2023-03-16T15:03:32.804Z,101564.53
2023-03-16T15:06:03.731Z,101569.16
2023-03-16T15:08:34.511Z,101565.13
2023-03-16T15:11:06.188Z,101548.81
2023-03-16T15:13:52.941Z,101555.03
2023-03-16T15:16:23.020Z,101550.06
2023-03-16T15:18:51.910Z,101550.41
2023-03-16T15:21:26.872Z,101552.72
2023-03-16T15:23:58.493Z,101559.00
2023-03-16T15:26:28.783Z,101560.81
2023-03-16T15:28:58.207Z,101558.16
2023-03-16T15:31:26.734Z,101560.28
2023-03-16T15:33:55.011Z,101561.97
2023-03-16T15:36:24.870Z,101562.69
2023-03-16T15:38:55.547Z,101558.16
2023-03-16T15:41:26.991Z,101562.13
2023-03-16T15:44:00.958Z,101558.66
2023-03-16T15:46:29.237Z,101549.69
2023-03-16T15:48:57.777Z,101562.09
2023-03-16T15:51:30.948Z,101560.31
2023-03-16T15:54:01.350Z,101555.88
2023-03-16T15:56:36.594Z,101547.16
2023-03-16T15:59:16.888Z,101552.13
2023-03-16T16:01:47.555Z,101548.28
2023-03-16T16:04:19.605Z,101557.63
2023-03-16T16:06:50.111Z,101539.88
2023-03-16T16:09:18.291Z,101556.16
2023-03-16T16:11:48.370Z,101542.56
2023-03-16T16:14:18.423Z,101526.16
2023-03-16T16:16:47.070Z,101530.81
2023-03-16T16:19:16.443Z,101538.09
2023-03-16T16:21:44.710Z,101544.59
2023-03-16T16:24:14.130Z,101547.69
2023-03-16T16:26:52.146Z,101542.81
2023-03-16T16:29:24.449Z,101549.44
2023-03-16T16:31:52.994Z,101548.78
2023-03-16T16:34:24.454Z,101552.50
2023-03-16T16:36:53.164Z,101559.72
2023-03-16T16:39:23.126Z,101559.38
2023-03-16T16:41:54.466Z,101575.69
2023-03-16T16:44:25.529Z,101565.25
2023-03-16T16:46:55.284Z,101575.44
2023-03-16T16:49:25.450Z,101576.94
2023-03-16T16:51:54.631Z,101569.94
2023-03-16T16:54:25.721Z,101583.47
2023-03-16T16:56:55.084Z,101578.44
2023-03-16T16:59:25.806Z,101588.22
2023-03-16T17:01:54.845Z,101591.13
2023-03-16T17:04:25.289Z,101590.03
2023-03-16T17:06:57.260Z,101585.81
2023-03-16T17:09:28.917Z,101580.84
2023-03-16T17:12:00.939Z,101585.03
2023-03-16T17:14:31.108Z,101585.84
2023-03-16T17:17:05.136Z,101592.38
2023-03-16T17:19:33.451Z,101591.22
2023-03-16T17:22:03.211Z,101581.22
2023-03-16T17:24:32.681Z,101587.81
2023-03-16T17:27:01.871Z,101576.91
2023-03-16T17:29:32.307Z,101584.25
2023-03-16T17:32:02.343Z,101583.84
2023-03-16T17:34:33.481Z,101581.38
2023-03-16T17:37:02.712Z,101593.00
2023-03-16T17:39:33.768Z,101594.75
2023-03-16T17:42:05.359Z,101592.25
2023-03-16T17:44:37.052Z,101588.28
2023-03-16T17:47:13.342Z,101581.63
2023-03-16T17:49:41.848Z,101593.97
2023-03-16T17:52:18.032Z,101598.97
2023-03-16T17:54:48.155Z,101600.97
2023-03-16T17:57:18.927Z,101593.72
2023-03-16T17:59:48.043Z,101598.50
2023-03-16T18:02:37.329Z,101599.09
2023-03-16T18:05:08.709Z,101598.16
2023-03-16T18:07:36.950Z,101595.00
2023-03-16T18:10:07.646Z,101594.97
2023-03-16T18:12:35.844Z,101596.88
2023-03-16T18:15:04.565Z,101594.19
2023-03-16T18:17:33.642Z,101595.28
2023-03-16T18:20:02.312Z,101602.56
2023-03-16T18:22:30.782Z,101609.75
2023-03-16T18:24:59.422Z,101601.97
2023-03-16T18:27:28.883Z,101597.59
2023-03-16T18:29:57.022Z,101591.53
2023-03-16T18:32:27.341Z,101605.81
2023-03-16T18:34:55.945Z,101600.69
2023-03-16T18:37:27.007Z,101599.38
2023-03-16T18:39:55.860Z,101589.47
2023-03-16T18:42:25.897Z,101597.41
2023-03-16T18:44:55.771Z,101595.88
2023-03-16T18:47:31.385Z,101581.06
2023-03-16T18:50:00.500Z,101582.69
2023-03-16T18:52:32.764Z,101568.97
2023-03-16T18:55:00.904Z,101567.72
2023-03-16T18:57:29.783Z,101557.03
2023-03-16T18:59:59.258Z,101562.31
2023-03-16T19:02:37.190Z,101570.19
2023-03-16T19:05:09.026Z,101562.13
2023-03-16T19:07:38.851Z,101574.31
2023-03-16T19:10:18.583Z,101572.34
2023-03-16T19:12:46.704Z,101570.50
2023-03-16T19:15:20.895Z,101560.59
2023-03-16T19:17:49.474Z,101556.06
2023-03-16T19:20:20.158Z,101556.31
2023-03-16T19:22:51.045Z,101563.38
2023-03-16T19:25:23.205Z,101557.53
2023-03-16T19:27:51.898Z,101549.66
2023-03-16T19:30:25.596Z,101557.53
2023-03-16T19:32:54.763Z,101553.25
2023-03-16T19:35:33.741Z,101554.91
2023-03-16T19:38:09.317Z,101548.00
2023-03-16T19:40:37.463Z,101551.47
2023-03-16T19:43:05.821Z,101555.84
2023-03-16T19:45:35.640Z,101552.56
2023-03-16T19:48:03.818Z,101534.31
2023-03-16T19:50:32.190Z,101539.78
2023-03-16T19:53:00.890Z,101540.53
2023-03-16T19:55:32.343Z,101534.63
2023-03-16T19:58:02.758Z,101536.94
2023-03-16T20:00:31.378Z,101533.69
2023-03-16T20:03:01.055Z,101537.75
2023-03-16T20:05:32.981Z,101542.00
2023-03-16T20:08:02.115Z,101546.47
2023-03-16T20:10:32.746Z,101551.63
2023-03-16T20:13:02.496Z,101537.41
2023-03-16T20:15:33.741Z,101519.03
2023-03-16T20:18:03.673Z,101521.59
2023-03-16T20:20:35.126Z,101507.75
2023-03-16T20:23:03.249Z,101514.13
2023-03-16T20:25:35.100Z,101508.91
2023-03-16T20:28:05.111Z,101504.56
2023-03-16T20:30:33.361Z,101506.09
2023-03-16T20:33:03.630Z,101509.47
2023-03-16T20:35:32.506Z,101507.75
2023-03-16T20:38:00.990Z,101509.31
2023-03-16T20:40:29.224Z,101502.19
2023-03-16T20:42:57.518Z,101507.31
2023-03-16T20:45:27.180Z,101501.91
2023-03-16T20:47:56.721Z,101491.34
2023-03-16T20:50:28.556Z,101497.50
2023-03-16T20:52:58.275Z,101508.63
2023-03-16T20:55:29.071Z,101504.03
2023-03-16T20:57:58.813Z,101493.72
2023-03-16T21:00:34.828Z,101490.38
2023-03-16T21:03:07.686Z,101506.19
2023-03-16T21:05:37.488Z,101507.66
2023-03-16T21:08:06.468Z,101502.88
2023-03-16T21:10:34.668Z,101494.78
2023-03-16T21:13:02.823Z,101501.09
2023-03-16T21:15:33.321Z,101501.97
2023-03-16T21:18:03.888Z,101510.38
2023-03-16T21:20:33.973Z,101505.22
2023-03-16T21:23:04.486Z,101516.59
2023-03-16T21:25:35.548Z,101520.88
2023-03-16T21:28:06.032Z,101510.28
2023-03-16T21:30:38.805Z,101515.63
2023-03-16T21:33:18.711Z,101504.94
2023-03-16T21:35:47.150Z,101506.25
2023-03-16T21:38:19.918Z,101505.13
2023-03-16T21:40:49.625Z,101489.41
2023-03-16T21:43:18.290Z,101490.22
2023-03-16T21:45:48.686Z,101479.88
2023-03-16T21:48:21.504Z,101480.59
2023-03-16T21:50:51.305Z,101484.13
2023-03-16T21:53:23.938Z,101480.44
2023-03-16T21:55:53.351Z,101470.88
2023-03-16T21:58:23.236Z,101468.69
2023-03-16T22:00:53.496Z,101463.28
2023-03-16T22:03:29.593Z,101455.78
2023-03-16T22:06:01.528Z,101450.66
2023-03-16T22:08:33.079Z,101457.13
2023-03-16T22:11:04.351Z,101461.75
2023-03-16T22:13:34.530Z,101462.19
2023-03-16T22:16:03.635Z,101453.59
2023-03-16T22:18:35.789Z,101451.16
2023-03-16T22:21:13.564Z,101448.72
2023-03-16T22:23:43.075Z,101451.91
2023-03-16T22:26:17.277Z,101440.88
2023-03-16T22:28:48.252Z,101452.09
2023-03-16T22:31:19.549Z,101454.19
2023-03-16T22:33:48.618Z,101444.47
2023-03-16T22:36:19.428Z,101440.66
2023-03-16T22:38:54.095Z,101437.19
2023-03-16T22:41:23.182Z,101436.38
2023-03-16T22:43:51.344Z,101425.97
2023-03-16T22:46:21.079Z,101406.66
2023-03-16T22:48:49.242Z,101422.47
2023-03-16T22:51:23.699Z,101422.38
2023-03-16T22:53:57.067Z,101424.00
2023-03-16T22:56:25.469Z,101425.34
2023-03-16T22:58:56.211Z,101419.56
2023-03-16T23:01:34.702Z,101421.09
2023-03-16T23:04:03.417Z,101411.81
2023-03-16T23:06:33.329Z,101406.56
2023-03-16T23:09:03.619Z,101410.78
2023-03-16T23:11:35.170Z,101415.78
2023-03-16T23:14:03.974Z,101411.44
2023-03-16T23:16:35.910Z,101397.72
2023-03-16T23:19:15.249Z,101389.34
2023-03-16T23:21:51.488Z,101396.97
2023-03-16T23:24:21.377Z,101398.75
2023-03-16T23:26:50.353Z,101401.81
2023-03-16T23:29:18.617Z,101392.59
2023-03-16T23:31:47.488Z,101391.53
2023-03-16T23:34:17.279Z,101397.81
2023-03-16T23:36:46.022Z,101391.72
2023-03-16T23:39:14.325Z,101399.09
2023-03-16T23:41:46.032Z,101394.59
2023-03-16T23:44:18.635Z,101386.78
2023-03-16T23:46:47.393Z,101388.50
2023-03-16T23:49:20.023Z,101384.94
2023-03-16T23:51:48.245Z,101383.34
2023-03-16T23:54:19.458Z,101377.25
2023-03-16T23:56:49.281Z,101386.88
2023-03-16T23:59:19.048Z,101393.94
